createdAt,value
2022-10-02T00:02:32.246Z,97450.00
2022-10-02T00:05:10.963Z,97460.00
2022-10-02T00:07:49.890Z,97451.00
2022-10-02T00:10:34.229Z,97459.00
2022-10-02T00:13:07.357Z,97441.00
2022-10-02T00:15:39.562Z,97457.00
2022-10-02T00:18:18.829Z,97457.00
2022-10-02T00:21:38.239Z,97451.00
2022-10-02T00:24:16.645Z,97456.00
2022-10-02T00:26:58.875Z,97454.00
2022-10-02T00:29:44.090Z,97450.00
2022-10-02T00:32:57.716Z,97456.00
2022-10-02T00:35:34.264Z,97463.00
2022-10-02T00:38:13.310Z,97465.00
2022-10-02T00:41:15.848Z,97480.00
2022-10-02T00:44:15.926Z,97466.00
2022-10-02T00:47:08.984Z,97467.00
2022-10-02T00:49:51.712Z,97468.00
2022-10-02T00:52:21.424Z,97467.00
2022-10-02T00:55:18.889Z,97464.00
2022-10-02T00:58:48.963Z,97472.00
2022-10-02T01:01:32.491Z,97477.00
2022-10-02T01:04:08.528Z,97484.00
2022-10-02T01:06:36.145Z,97464.00
2022-10-02T01:09:03.351Z,97475.00
2022-10-02T01:11:31.415Z,97467.00
2022-10-02T01:13:58.314Z,97472.00
2022-10-02T01:16:26.066Z,97469.00
2022-10-02T01:18:53.051Z,97479.00
2022-10-02T01:21:53.091Z,97465.00
2022-10-02T01:24:29.426Z,97482.00
2022-10-02T01:26:56.270Z,97469.00
2022-10-02T01:29:23.237Z,97472.00
2022-10-02T01:31:50.386Z,97476.00
2022-10-02T01:34:17.692Z,97477.00
2022-10-02T01:36:44.999Z,97464.00
2022-10-02T01:39:11.934Z,97473.00
2022-10-02T01:41:44.366Z,97467.00
2022-10-02T01:44:13.747Z,97477.00
2022-10-02T01:46:59.736Z,97476.00
2022-10-02T01:49:36.378Z,97481.00
2022-10-02T01:52:49.619Z,97472.00
2022-10-02T01:55:38.424Z,97469.00
2022-10-02T01:58:33.623Z,97475.00
2022-10-02T02:02:08.342Z,97473.00
2022-10-02T02:05:05.844Z,97471.00
2022-10-02T02:07:49.166Z,97473.00
2022-10-02T02:10:26.398Z,97484.00
2022-10-02T02:13:16.044Z,97480.00
2022-10-02T02:15:54.799Z,97479.00
2022-10-02T02:18:48.429Z,97469.00
2022-10-02T02:21:25.090Z,97462.00
2022-10-02T02:23:55.881Z,97473.00
2022-10-02T02:26:25.799Z,97462.00
2022-10-02T02:29:00.035Z,97461.00
2022-10-02T02:31:35.404Z,97475.00
2022-10-02T02:34:11.187Z,97472.00
2022-10-02T02:36:45.391Z,97467.00
2022-10-02T02:39:28.818Z,97472.00
2022-10-02T02:42:02.949Z,97469.00
2022-10-02T02:45:08.881Z,97469.00
2022-10-02T02:47:52.203Z,97444.00
2022-10-02T02:50:31.885Z,97473.00
2022-10-02T02:53:12.104Z,97462.00
2022-10-02T02:55:52.114Z,97466.00
2022-10-02T02:58:58.899Z,97467.00
2022-10-02T03:01:25.823Z,97461.00
2022-10-02T03:03:52.745Z,97464.00
2022-10-02T03:06:38.651Z,97462.00
2022-10-02T03:09:12.202Z,97462.00
2022-10-02T03:12:02.789Z,97461.00
2022-10-02T03:15:26.536Z,97467.00
2022-10-02T03:18:57.988Z,97469.00
2022-10-02T03:21:37.920Z,97472.00
2022-10-02T03:24:19.426Z,97458.00
2022-10-02T03:27:09.027Z,97457.00
2022-10-02T03:29:46.911Z,97458.00
2022-10-02T03:32:17.595Z,97470.00
2022-10-02T03:34:44.654Z,97482.00
2022-10-02T03:37:11.999Z,97490.00
2022-10-02T03:39:46.094Z,97475.00
2022-10-02T03:42:14.810Z,97473.00
2022-10-02T03:44:43.112Z,97468.00
2022-10-02T03:47:10.182Z,97453.00
2022-10-02T03:49:37.190Z,97459.00
2022-10-02T03:52:04.111Z,97475.00
2022-10-02T03:54:35.915Z,97454.00
2022-10-02T03:57:10.064Z,97460.00
2022-10-02T03:59:55.919Z,97465.00
2022-10-02T04:02:39.921Z,97466.00
2022-10-02T04:05:45.570Z,97469.00
2022-10-02T04:09:07.243Z,97460.00
2022-10-02T04:11:43.704Z,97446.00
2022-10-02T04:14:19.712Z,97443.00
2022-10-02T04:16:49.244Z,97453.00
2022-10-02T04:19:24.526Z,97469.00
2022-10-02T04:22:38.997Z,97456.00
2022-10-02T04:25:19.575Z,97436.00
2022-10-02T04:28:01.266Z,97442.00
2022-10-02T04:30:30.069Z,97444.00
2022-10-02T04:33:10.861Z,97453.00
2022-10-02T04:36:19.507Z,97445.00
2022-10-02T04:39:20.702Z,97463.00
2022-10-02T04:42:17.458Z,97456.00
2022-10-02T04:44:57.528Z,97452.00
2022-10-02T04:48:03.487Z,97451.00
2022-10-02T04:51:00.463Z,97466.00
2022-10-02T04:54:07.896Z,97455.00
2022-10-02T04:57:02.665Z,97462.00
2022-10-02T05:00:03.696Z,97455.00
2022-10-02T05:02:45.459Z,97464.00
2022-10-02T05:05:50.805Z,97494.00
2022-10-02T05:08:58.023Z,97524.00
2022-10-02T05:11:37.184Z,97492.00
2022-10-02T05:14:18.932Z,97485.00
2022-10-02T05:17:07.255Z,97477.00
2022-10-02T05:20:06.706Z,97470.00
2022-10-02T05:23:04.342Z,97473.00
2022-10-02T05:26:09.675Z,97477.00
2022-10-02T05:29:24.783Z,97488.00
2022-10-02T05:32:14.396Z,97482.00
2022-10-02T05:35:17.424Z,97482.00
2022-10-02T05:38:15.506Z,97497.00
2022-10-02T05:41:06.375Z,97479.00
2022-10-02T05:44:03.137Z,97480.00
2022-10-02T05:46:40.847Z,97478.00
2022-10-02T05:49:19.414Z,97483.00
2022-10-02T05:52:05.918Z,97472.00
2022-10-02T05:54:47.156Z,97487.00
2022-10-02T05:57:32.668Z,97484.00
2022-10-02T06:00:32.228Z,97489.00
2022-10-02T06:03:23.761Z,97480.00
2022-10-02T06:05:55.472Z,97491.00
2022-10-02T06:08:53.033Z,97487.00
2022-10-02T06:12:02.797Z,97501.00
2022-10-02T06:14:37.014Z,97496.00
2022-10-02T06:17:12.408Z,97497.00
2022-10-02T06:19:57.875Z,97485.00
2022-10-02T06:23:01.627Z,97498.00
2022-10-02T06:25:40.782Z,97496.00
2022-10-02T06:28:41.407Z,97499.00
2022-10-02T06:31:21.571Z,97498.00
2022-10-02T06:33:48.571Z,97494.00
2022-10-02T06:36:52.393Z,97498.00
2022-10-02T06:39:43.162Z,97518.00
2022-10-02T06:42:18.908Z,97525.00
2022-10-02T06:45:21.187Z,97519.00
2022-10-02T06:48:13.185Z,97532.00
2022-10-02T06:50:53.481Z,97523.00
2022-10-02T06:53:52.211Z,97522.00
2022-10-02T06:56:59.490Z,97518.00
2022-10-02T06:59:51.850Z,97533.00
2022-10-02T07:02:56.544Z,97543.00
2022-10-02T07:06:01.133Z,97546.00
2022-10-02T07:09:21.642Z,97542.00
2022-10-02T07:12:05.144Z,97541.00
2022-10-02T07:15:13.205Z,97538.00
2022-10-02T07:18:23.772Z,97544.00
2022-10-02T07:21:23.592Z,97556.00
2022-10-02T07:24:20.756Z,97544.00
2022-10-02T07:27:09.143Z,97548.00
2022-10-02T07:30:04.321Z,97549.00
2022-10-02T07:32:49.527Z,97552.00
2022-10-02T07:35:32.286Z,97556.00
2022-10-02T07:38:23.890Z,97566.00
2022-10-02T07:41:14.228Z,97561.00
2022-10-02T07:44:29.409Z,97552.00
2022-10-02T07:47:11.691Z,97582.00
2022-10-02T07:50:07.692Z,97580.00
2022-10-02T07:52:43.550Z,97574.00
2022-10-02T07:55:26.065Z,97561.00
2022-10-02T07:58:23.096Z,97581.00
2022-10-02T08:01:02.105Z,97582.00
2022-10-02T08:03:28.885Z,97584.00
2022-10-02T08:05:58.894Z,97573.00
2022-10-02T08:08:47.627Z,97561.00
2022-10-02T08:11:23.152Z,97576.00
2022-10-02T08:13:59.320Z,97561.00
2022-10-02T08:16:41.508Z,97577.00
2022-10-02T08:19:22.888Z,97574.00
2022-10-02T08:22:00.488Z,97583.00
2022-10-02T08:24:40.936Z,97574.00
2022-10-02T08:27:25.073Z,97582.00
2022-10-02T08:30:06.410Z,97569.00
2022-10-02T08:32:37.113Z,97575.00
2022-10-02T08:35:19.643Z,97575.00
2022-10-02T08:38:44.149Z,97607.00
2022-10-02T08:41:49.933Z,97589.00
2022-10-02T08:44:39.798Z,97605.00
2022-10-02T08:47:32.998Z,97590.00
2022-10-02T08:50:30.991Z,97597.00
2022-10-02T08:53:28.612Z,97595.00
2022-10-02T08:56:40.969Z,97601.00
2022-10-02T08:59:25.954Z,97592.00
2022-10-02T09:02:44.934Z,97591.00
2022-10-02T09:05:49.735Z,97597.00
2022-10-02T09:08:57.886Z,97592.00
2022-10-02T09:11:37.111Z,97594.00
2022-10-02T09:14:21.908Z,97589.00
2022-10-02T09:17:36.168Z,97601.00
2022-10-02T09:20:51.213Z,97605.00
2022-10-02T09:24:05.401Z,97594.00
2022-10-02T09:26:54.171Z,97594.00
2022-10-02T09:30:34.292Z,97588.00
2022-10-02T09:33:46.259Z,97596.00
2022-10-02T09:36:42.770Z,97598.00
2022-10-02T09:39:31.007Z,97603.00
2022-10-02T09:42:45.305Z,97597.00
2022-10-02T09:45:52.194Z,97615.00
2022-10-02T09:49:19.553Z,97600.00
2022-10-02T09:52:39.323Z,97614.00
2022-10-02T09:55:50.053Z,97611.00
2022-10-02T09:58:47.538Z,97619.00
2022-10-02T10:02:00.837Z,97613.00
2022-10-02T10:05:13.715Z,97623.00
2022-10-02T10:08:08.086Z,97616.00
2022-10-02T10:11:09.389Z,97625.00
2022-10-02T10:14:00.890Z,97618.00
2022-10-02T10:16:49.690Z,97622.00
2022-10-02T10:20:08.496Z,97614.00
2022-10-02T10:23:03.467Z,97625.00
2022-10-02T10:26:04.299Z,97622.00
2022-10-02T10:29:12.130Z,97631.00
2022-10-02T10:32:53.572Z,97622.00
2022-10-02T10:35:58.017Z,97629.00
2022-10-02T10:39:04.543Z,97640.00
2022-10-02T10:42:01.099Z,97629.00
2022-10-02T10:44:59.521Z,97639.00
2022-10-02T10:47:58.202Z,97650.00
2022-10-02T10:50:30.865Z,97651.00
2022-10-02T10:53:30.643Z,97659.00
2022-10-02T10:56:36.904Z,97652.00
2022-10-02T10:59:42.367Z,97663.00
2022-10-02T11:02:56.423Z,97670.00
2022-10-02T11:06:19.667Z,97663.00
2022-10-02T11:09:34.714Z,97657.00
2022-10-02T11:12:44.556Z,97663.00
2022-10-02T11:15:39.201Z,97673.00
2022-10-02T11:18:55.861Z,97669.00
2022-10-02T11:21:44.430Z,97673.00
2022-10-02T11:24:38.013Z,97682.00
2022-10-02T11:27:31.066Z,97682.00
2022-10-02T11:30:23.288Z,97673.00
2022-10-02T11:33:22.251Z,97683.00
2022-10-02T11:36:07.021Z,97685.00
2022-10-02T11:38:55.993Z,97688.00
2022-10-02T11:42:00.807Z,97682.00
2022-10-02T11:45:23.873Z,97692.00
2022-10-02T11:48:14.245Z,97699.00
2022-10-02T11:51:10.220Z,97686.00
2022-10-02T11:54:11.602Z,97687.00
2022-10-02T11:57:20.408Z,97693.00
2022-10-02T12:00:33.949Z,97692.00
2022-10-02T12:03:09.778Z,97702.00
2022-10-02T12:06:31.254Z,97710.00
2022-10-02T12:09:13.394Z,97701.00
2022-10-02T12:12:17.178Z,97711.00
2022-10-02T12:15:28.437Z,97705.00
2022-10-02T12:18:36.259Z,97708.00
2022-10-02T12:22:04.159Z,97710.00
2022-10-02T12:25:30.371Z,97719.00
2022-10-02T12:28:32.979Z,97709.00
2022-10-02T12:31:24.995Z,97706.00
2022-10-02T12:34:26.255Z,97713.00
2022-10-02T12:37:08.367Z,97699.00
2022-10-02T12:39:46.941Z,97705.00
2022-10-02T12:42:45.475Z,97703.00
2022-10-02T12:45:28.161Z,97695.00
2022-10-02T12:48:28.244Z,97701.00
2022-10-02T12:51:35.402Z,97705.00
2022-10-02T12:54:12.038Z,97706.00
2022-10-02T12:57:05.112Z,97711.00
2022-10-02T13:00:01.044Z,97709.00
2022-10-02T13:03:05.400Z,97703.00
2022-10-02T13:05:46.974Z,97709.00
2022-10-02T13:08:42.999Z,97717.00
2022-10-02T13:11:56.778Z,97699.00
2022-10-02T13:15:06.649Z,97710.00
2022-10-02T13:17:58.707Z,97708.00
2022-10-02T13:21:04.296Z,97698.00
2022-10-02T13:24:14.494Z,97702.00
2022-10-02T13:27:18.508Z,97702.00
2022-10-02T13:30:10.493Z,97713.00
2022-10-02T13:33:10.977Z,97699.00
2022-10-02T13:35:47.052Z,97699.00
2022-10-02T13:39:07.150Z,97700.00
2022-10-02T13:42:17.973Z,97700.00
2022-10-02T13:45:16.055Z,97713.00
2022-10-02T13:48:05.944Z,97703.00
2022-10-02T13:51:17.062Z,97695.00
2022-10-02T13:54:29.014Z,97713.00
2022-10-02T13:57:33.291Z,97711.00
2022-10-02T14:00:37.663Z,97701.00
2022-10-02T14:03:34.941Z,97707.00
2022-10-02T14:06:20.047Z,97711.00
2022-10-02T14:09:22.129Z,97714.00
2022-10-02T14:12:14.781Z,97705.00
2022-10-02T14:15:07.065Z,97708.00
2022-10-02T14:18:29.201Z,97703.00
2022-10-02T14:21:27.847Z,97707.00
2022-10-02T14:24:09.532Z,97700.00
2022-10-02T14:27:00.473Z,97719.00
2022-10-02T14:29:48.942Z,97715.00
2022-10-02T14:32:50.317Z,97712.00
2022-10-02T14:35:34.368Z,97723.00
2022-10-02T14:38:25.986Z,97727.00
2022-10-02T14:41:01.862Z,97719.00
2022-10-02T14:43:42.652Z,97725.00
2022-10-02T14:46:18.352Z,97738.00
2022-10-02T14:49:20.842Z,97732.00
2022-10-02T14:52:29.777Z,97733.00
2022-10-02T14:55:33.390Z,97738.00
2022-10-02T14:58:33.417Z,97740.00
2022-10-02T15:01:22.809Z,97748.00
2022-10-02T15:04:04.807Z,97753.00
2022-10-02T15:07:10.607Z,97771.00
2022-10-02T15:10:22.105Z,97761.00
2022-10-02T15:13:10.204Z,97760.00
2022-10-02T15:15:42.975Z,97751.00
2022-10-02T15:18:43.172Z,97770.00
2022-10-02T15:21:42.849Z,97766.00
2022-10-02T15:24:32.783Z,97759.00
2022-10-02T15:27:40.438Z,97762.00
2022-10-02T15:30:28.078Z,97772.00
2022-10-02T15:33:46.119Z,97773.00
2022-10-02T15:36:29.886Z,97760.00
2022-10-02T15:39:05.565Z,97779.00
2022-10-02T15:41:46.607Z,97781.00
2022-10-02T15:45:08.509Z,97776.00
2022-10-02T15:48:06.476Z,97768.00
2022-10-02T15:51:29.775Z,97784.00
2022-10-02T15:54:33.616Z,97762.00
2022-10-02T15:57:26.723Z,97778.00
2022-10-02T16:00:17.093Z,97778.00
2022-10-02T16:03:20.065Z,97766.00
2022-10-02T16:05:57.341Z,97774.00
2022-10-02T16:08:42.476Z,97790.00
2022-10-02T16:11:47.083Z,97791.00
2022-10-02T16:14:52.333Z,97787.00
2022-10-02T16:17:45.380Z,97785.00
2022-10-02T16:20:48.043Z,97804.00
2022-10-02T16:23:50.090Z,97795.00
2022-10-02T16:26:40.099Z,97798.00
2022-10-02T16:29:33.919Z,97797.00
2022-10-02T16:32:30.946Z,97805.00
2022-10-02T16:35:30.672Z,97805.00
2022-10-02T16:38:39.281Z,97806.00
2022-10-02T16:41:41.374Z,97827.00
2022-10-02T16:44:47.126Z,97823.00
2022-10-02T16:47:44.100Z,97851.00
2022-10-02T16:50:23.887Z,97837.00
2022-10-02T16:53:12.692Z,97854.00
2022-10-02T16:55:58.040Z,97864.00
2022-10-02T16:58:40.168Z,97847.00
2022-10-02T17:01:53.614Z,97861.00
2022-10-02T17:05:00.832Z,97867.00
2022-10-02T17:08:00.915Z,97873.00
2022-10-02T17:11:00.092Z,97867.00
2022-10-02T17:13:42.672Z,97884.00
2022-10-02T17:16:39.239Z,97885.00
2022-10-02T17:19:48.630Z,97885.00
2022-10-02T17:22:37.998Z,97911.00
2022-10-02T17:25:16.959Z,97893.00
2022-10-02T17:28:44.755Z,97909.00
2022-10-02T17:31:23.366Z,97924.00
2022-10-02T17:34:02.161Z,97907.00
2022-10-02T17:36:41.591Z,97909.00
2022-10-02T17:39:27.116Z,97920.00
2022-10-02T17:42:52.920Z,97924.00
2022-10-02T17:45:52.378Z,97941.00
2022-10-02T17:49:03.440Z,97944.00
2022-10-02T17:52:21.917Z,97944.00
2022-10-02T17:56:13.038Z,97960.00
2022-10-02T17:59:25.635Z,97959.00
2022-10-02T18:02:14.282Z,97956.00
2022-10-02T18:04:59.628Z,97968.00
2022-10-02T18:07:29.160Z,97967.00
2022-10-02T18:10:31.035Z,97981.00
2022-10-02T18:13:05.361Z,97985.00
2022-10-02T18:16:02.300Z,97986.00
2022-10-02T18:18:39.514Z,97999.00
2022-10-02T18:21:34.532Z,98010.00
2022-10-02T18:24:39.645Z,98029.00
2022-10-02T18:28:15.332Z,98009.00
2022-10-02T18:31:54.807Z,98015.00
2022-10-02T18:34:57.699Z,98031.00
2022-10-02T18:37:32.687Z,98038.00
2022-10-02T18:40:25.728Z,98018.00
2022-10-02T18:43:47.486Z,98030.00
2022-10-02T18:46:18.729Z,98038.00
2022-10-02T18:49:29.734Z,98034.00
2022-10-02T18:52:42.620Z,98047.00
2022-10-02T18:56:03.264Z,98055.00
2022-10-02T18:58:57.462Z,98052.00
2022-10-02T19:01:47.471Z,98052.00
2022-10-02T19:04:37.362Z,98054.00
2022-10-02T19:07:21.806Z,98061.00
2022-10-02T19:10:37.043Z,98054.00
2022-10-02T19:13:17.565Z,98064.00
2022-10-02T19:15:48.430Z,98059.00
2022-10-02T19:18:31.091Z,98076.00
2022-10-02T19:21:19.362Z,98071.00
2022-10-02T19:24:01.478Z,98079.00
2022-10-02T19:26:40.728Z,98074.00
2022-10-02T19:29:29.041Z,98092.00
2022-10-02T19:32:00.739Z,98078.00
2022-10-02T19:34:30.956Z,98087.00
2022-10-02T19:37:05.237Z,98103.00
2022-10-02T19:39:41.212Z,98095.00
2022-10-02T19:42:17.241Z,98109.00
2022-10-02T19:44:56.244Z,98116.00
2022-10-02T19:47:42.547Z,98108.00
2022-10-02T19:50:27.927Z,98121.00
2022-10-02T19:53:02.773Z,98115.00
2022-10-02T19:55:36.913Z,98124.00
2022-10-02T19:58:20.693Z,98122.00
2022-10-02T20:00:51.676Z,98124.00
2022-10-02T20:03:24.338Z,98153.00
2022-10-02T20:06:11.076Z,98127.00
2022-10-02T20:08:54.115Z,98132.00
2022-10-02T20:11:47.711Z,98142.00
2022-10-02T20:14:39.690Z,98135.00
2022-10-02T20:17:10.817Z,98140.00
2022-10-02T20:19:45.369Z,98133.00
2022-10-02T20:22:45.391Z,98155.00
2022-10-02T20:25:28.590Z,98158.00
2022-10-02T20:28:33.432Z,98152.00
2022-10-02T20:31:06.079Z,98149.00
2022-10-02T20:33:54.531Z,98170.00
2022-10-02T20:36:31.484Z,98168.00
2022-10-02T20:39:24.298Z,98180.00
2022-10-02T20:42:00.998Z,98184.00
2022-10-02T20:44:30.978Z,98189.00
2022-10-02T20:47:52.113Z,98182.00
2022-10-02T20:51:01.152Z,98156.00
2022-10-02T20:54:04.936Z,98201.00
2022-10-02T20:56:40.789Z,98207.00
2022-10-02T20:59:36.839Z,98224.00
2022-10-02T21:02:39.608Z,98209.00
2022-10-02T21:05:53.202Z,98204.00
2022-10-02T21:08:56.851Z,98214.00
2022-10-02T21:11:58.108Z,98220.00
2022-10-02T21:14:55.468Z,98209.00
2022-10-02T21:17:55.707Z,98218.00
2022-10-02T21:21:13.293Z,98225.00
2022-10-02T21:23:45.920Z,98226.00
2022-10-02T21:26:40.998Z,98218.00
2022-10-02T21:29:41.220Z,98233.00
2022-10-02T21:32:30.334Z,98230.00
2022-10-02T21:36:03.998Z,98230.00
2022-10-02T21:39:10.734Z,98246.00
2022-10-02T21:42:04.087Z,98265.00
2022-10-02T21:45:28.667Z,98261.00
2022-10-02T21:48:45.174Z,98246.00
2022-10-02T21:51:37.830Z,98265.00
2022-10-02T21:54:53.490Z,98261.00
2022-10-02T21:58:15.144Z,98265.00
2022-10-02T22:01:07.804Z,98271.00
2022-10-02T22:04:22.061Z,98263.00
2022-10-02T22:07:22.318Z,98270.00
2022-10-02T22:10:02.542Z,98271.00
2022-10-02T22:12:40.747Z,98279.00
2022-10-02T22:15:43.171Z,98283.00
2022-10-02T22:18:44.073Z,98273.00
2022-10-02T22:21:43.308Z,98285.00
2022-10-02T22:24:32.030Z,98300.00
2022-10-02T22:27:26.933Z,98310.00
2022-10-02T22:29:56.576Z,98307.00
2022-10-02T22:33:12.183Z,98303.00
2022-10-02T22:36:09.818Z,98310.00
2022-10-02T22:38:43.625Z,98310.00
2022-10-02T22:41:28.770Z,98315.00
2022-10-02T22:44:09.419Z,98312.00
2022-10-02T22:47:22.818Z,98320.00
2022-10-02T22:49:59.393Z,98323.00
2022-10-02T22:52:53.107Z,98326.00
2022-10-02T22:55:45.730Z,98317.00
2022-10-02T22:58:47.718Z,98324.00
2022-10-02T23:01:26.840Z,98335.00
2022-10-02T23:04:07.724Z,98324.00
2022-10-02T23:07:03.966Z,98325.00
2022-10-02T23:09:51.130Z,98327.00
2022-10-02T23:12:43.652Z,98332.00
2022-10-02T23:15:47.313Z,98336.00
2022-10-02T23:18:51.425Z,98303.00
2022-10-02T23:21:52.178Z,98325.00
2022-10-02T23:24:36.001Z,98337.00
2022-10-02T23:27:02.786Z,98344.00
2022-10-02T23:29:56.447Z,98334.00
2022-10-02T23:32:46.592Z,98346.00
2022-10-02T23:35:28.312Z,98352.00
2022-10-02T23:38:14.278Z,98336.00
2022-10-02T23:41:36.978Z,98339.00
2022-10-02T23:44:21.915Z,98345.00
2022-10-02T23:46:51.278Z,98356.00
2022-10-02T23:49:22.977Z,98335.00
2022-10-02T23:52:30.745Z,98336.00
2022-10-02T23:55:47.471Z,98351.00
2022-10-02T23:58:54.787Z,98342.00
